Time;durP1;ratioP1;P1;durP2;ratioP2;P2;SDS_P1;SDS_P2;PMS_P1;PMS_P2;Temp;Humidity;BMP_temperature;BMP_pressure;BME280_temperature;BME280_humidity;BME280_pressure;Samples;Min_cycle;Max_cycle;Signal;HPM_P1;HPM_P2
2023/10/06 00:01:49;;;;;;;10.02;3.25;;;;;;;-144.05;79.43;56955.03;4996919;28;20022;-79
2023/10/06 00:04:16;;;;;;;7.90;3.22;;;12.40;99.90;;;-144.05;79.45;56942.28;4989541;28;20041;-78
2023/10/06 00:06:43;;;;;;;10.40;3.72;;;12.40;99.90;;;-144.05;79.70;56967.78;4984581;28;20145;-78
2023/10/06 00:09:19;;;;;;;10.20;3.28;;;8.00;99.90;;;-144.05;79.74;56929.53;4986203;28;20033;-81
2023/10/06 00:11:46;;;;;;;9.25;3.33;;;;;;;-144.05;79.52;56965.66;4995139;28;20476;-80
2023/10/06 00:14:38;;;;;;;13.25;3.55;;;;;;;-144.05;79.62;56942.28;4994944;28;20090;-82
2023/10/06 00:16:59;;;;;;;10.10;4.60;;;;;;;-144.05;78.98;56957.16;5008028;28;20145;-79
2023/10/06 00:19:31;;;;;;;9.30;3.25;;;;;;;-144.05;79.12;56972.03;5000692;28;20408;-80
2023/10/06 00:24:43;;;;;;;10.32;2.80;;;;;;;-144.05;78.92;56972.03;4997123;28;20430;-79
2023/10/06 00:27:11;;;;;;;6.82;3.10;;;11.80;99.90;;;-144.05;79.69;56955.03;4982194;28;20019;-77
2023/10/06 00:29:49;;;;;;;13.32;3.60;;;11.90;99.90;;;-144.05;79.80;56955.03;4985614;28;20113;-78
2023/10/06 00:32:21;;;;;;;10.43;3.40;;;;;;;-144.05;79.63;56959.28;4981274;28;20479;-78
2023/10/06 00:34:54;;;;;;;7.68;3.88;;;12.20;99.90;;;-144.05;79.79;56959.28;5010070;28;20483;-80
2023/10/06 00:37:24;;;;;;;13.45;3.70;;;;;;;-144.05;79.21;56948.66;4994127;28;20022;-79
2023/10/06 00:39:57;;;;;;;7.35;3.92;;;11.90;99.90;;;-144.05;79.09;56948.66;4994681;28;20034;-79
2023/10/06 00:42:23;;;;;;;7.07;3.63;;;;;;;-144.05;79.13;56944.41;4993889;28;20030;-79
2023/10/06 00:44:50;;;;;;;13.57;3.50;;;;;;;-144.05;79.15;56965.66;4995031;28;20058;-79
2023/10/06 00:47:17;;;;;;;8.77;3.83;;;;;;;-144.05;79.55;56950.78;4993553;28;20019;-80
2023/10/06 00:49:44;;;;;;;13.65;3.85;;;;;;;-144.05;79.05;56965.66;4983648;28;20029;-78
2023/10/06 00:52:12;;;;;;;10.00;4.22;;;12.20;99.90;;;-144.05;78.97;56967.78;4980050;28;20105;-79
2023/10/06 00:54:46;;;;;;;7.50;3.20;;;;;;;-144.05;79.17;56948.66;4984071;28;20026;-79
2023/10/06 00:57:17;;;;;;;10.85;3.88;;;;;;;-144.05;79.65;56972.03;4981716;28;20030;-79
2023/10/06 00:59:44;;;;;;;9.75;3.72;;;;;;;-144.05;79.22;56946.53;4980850;28;20038;-80
2023/10/06 01:02:11;;;;;;;10.52;3.67;;;;;;;-144.05;79.05;56944.41;4980963;28;20031;-79
2023/10/06 01:04:45;;;;;;;6.75;3.97;;;12.70;99.90;;;-144.05;79.05;56957.16;4986636;28;20089;-79
2023/10/06 01:07:16;;;;;;;10.30;3.53;;;13.00;99.90;;;-144.05;79.53;56935.91;4983301;28;20035;-82
2023/10/06 01:10:14;;;;;;;7.25;3.00;;;12.70;99.90;;;-144.05;78.85;56965.66;4988656;28;20025;-80
2023/10/06 01:12:40;;;;;;;10.95;3.80;;;;;;;-144.05;78.75;56933.78;4982986;28;20022;-80
2023/10/06 01:15:18;;;;;;;7.55;3.00;;;13.00;99.90;;;-144.05;79.08;56959.28;4995308;28;20122;-80
2023/10/06 01:17:46;;;;;;;14.27;4.47;;;;;;;-144.05;79.15;56950.78;4992826;28;20442;-78
2023/10/06 01:20:36;;;;;;;14.07;4.10;;;12.90;99.90;;;-144.05;78.88;56969.91;4994802;28;20048;-78
2023/10/06 01:23:07;;;;;;;9.30;3.20;;;;;;;-144.05;78.75;56950.78;4993174;28;20089;-80
2023/10/06 01:25:34;;;;;;;14.20;4.35;;;;;;;-144.05;79.67;56961.41;4994373;28;20653;-79
2023/10/06 01:28:03;;;;;;;12.00;3.50;;;;;;;-144.05;78.87;56944.41;4993945;28;20030;-78
2023/10/06 01:30:29;;;;;;;8.85;3.63;;;;;;;-144.05;79.16;56955.03;4994383;28;20415;-79
2023/10/06 01:32:58;;;;;;;10.20;3.30;;;;;;;-144.05;79.70;56959.28;4993936;28;20080;-79
2023/10/06 01:35:26;;;;;;;12.57;3.90;;;;;;;-144.05;79.90;56982.66;4994169;28;20113;-81
2023/10/06 01:38:00;;;;;;;9.40;3.80;;;;;;;-144.05;79.51;56933.78;5009333;28;20072;-79
2023/10/06 01:42:53;;;;;;;10.80;3.58;;;;;;;-144.05;78.39;56952.91;4985478;28;20034;-79
2023/10/06 01:45:23;;;;;;;6.65;3.15;;;12.30;99.90;;;-144.05;78.86;56946.53;4981504;28;20035;-77
2023/10/06 01:48:22;;;;;;;7.50;3.10;;;13.00;99.90;;;-144.05;79.02;56959.28;4993884;28;20015;-80
2023/10/06 01:50:50;;;;;;;11.07;3.45;;;;;;;-144.05;78.67;56923.19;5003232;28;20026;-80
2023/10/06 01:53:20;;;;;;;10.63;2.80;;;12.00;99.90;;;-144.05;78.99;56938.03;4984974;28;20023;-80
2023/10/06 01:55:52;;;;;;;11.05;3.85;;;12.20;99.90;;;-144.05;79.49;56933.78;4996296;28;20022;-78
2023/10/06 01:58:18;;;;;;;12.85;3.95;;;;;;;-144.05;79.51;56935.91;4978449;28;20031;-78
2023/10/06 02:00:50;;;;;;;7.10;3.40;;;;;;;-144.05;79.27;56959.28;4978650;28;20044;-80
2023/10/06 02:03:17;;;;;;;7.65;3.00;;;;;;;-144.05;79.50;56950.78;4978244;28;20066;-80
2023/10/06 02:05:44;;;;;;;9.32;3.20;;;;;;;-144.05;78.90;56946.53;5002237;28;20097;-80
2023/10/06 02:08:14;;;;;;;10.23;4.05;;;;;;;-144.05;79.27;56935.91;4993571;28;20038;-80
2023/10/06 02:10:42;;;;;;;8.75;3.33;;;;;;;-144.05;79.15;56946.53;4992465;28;20030;-80
2023/10/06 02:13:08;;;;;;;10.82;3.55;;;;;;;-144.05;78.95;56940.16;4995737;28;20054;-79
2023/10/06 02:15:35;;;;;;;13.35;3.80;;;;;;;-144.05;79.18;56938.03;4995303;28;20026;-79
2023/10/06 02:18:01;;;;;;;9.32;3.13;;;;;;;-144.05;79.30;56957.16;4993718;28;20454;-78
2023/10/06 02:22:57;;;;;;;10.18;3.22;;;;;;;-144.05;78.80;56923.19;4993615;28;20121;-80
2023/10/06 02:25:25;;;;;;;11.40;3.38;;;;;;;-144.05;78.97;56946.53;5009821;28;20027;-79
2023/10/06 02:27:52;;;;;;;11.77;3.83;;;;;;;-144.05;79.12;56974.16;4994296;28;20034;-80
2023/10/06 02:30:44;;;;;;;8.50;3.40;;;12.20;99.90;;;-144.05;78.80;56935.91;4982123;28;20042;-80
2023/10/06 02:33:11;;;;;;;10.75;3.80;;;;;;;-144.05;79.09;56944.41;4988050;28;20037;-79
2023/10/06 02:35:45;;;;;;;10.60;4.28;;;;;;;-144.05;79.17;56972.03;4994149;28;20659;-79
2023/10/06 02:38:12;;;;;;;18.52;3.55;;;;;;;-144.05;78.99;56955.03;4993984;28;20048;-79
2023/10/06 02:40:44;;;;;;;9.73;3.10;;;;;;;-144.05;79.16;56961.41;4992884;28;20034;-78
2023/10/06 02:43:20;;;;;;;7.75;2.80;;;12.10;99.90;;;-144.05;78.95;56978.41;5009081;28;20398;-79
2023/10/06 02:45:46;;;;;;;8.43;3.45;;;;;;;-144.05;78.66;56957.16;5008223;28;20027;-80
2023/10/06 02:48:17;;;;;;;11.70;3.50;;;;;;;-144.05;78.31;56967.78;5009209;28;20044;-79
2023/10/06 02:50:49;;;;;;;9.48;3.53;;;;;;;-144.05;78.42;56957.16;4993933;28;20034;-82
2023/10/06 02:53:20;;;;;;;8.85;3.33;;;;;;;-144.05;79.07;56938.03;4983742;28;20063;-81
2023/10/06 02:55:55;;;;;;;9.90;2.92;;;;;;;-144.05;78.01;56957.16;4977756;28;20023;-80
2023/10/06 02:58:30;;;;;;;12.40;3.03;;;;;;;-144.05;78.32;56982.66;4976955;28;20488;-79
2023/10/06 03:00:57;;;;;;;8.35;2.72;;;;;;;-144.05;78.50;56935.91;5002142;28;20629;-78
2023/10/06 03:03:33;;;;;;;8.05;2.80;;;;;;;-144.05;78.69;56946.53;4995338;28;20030;-80
2023/10/06 03:06:06;;;;;;;8.85;3.88;;;;;;;-144.05;78.38;56961.41;4987037;28;20019;-80
2023/10/06 03:08:35;;;;;;;9.98;3.22;;;;;;;-144.05;78.31;56976.28;4994024;28;20040;-79
2023/10/06 03:11:01;;;;;;;9.55;2.92;;;;;;;-144.05;77.73;56940.16;4992056;28;20034;-79
2023/10/06 03:13:36;;;;;;;8.68;2.65;;;;;;;-144.05;77.54;56929.53;4990324;28;20114;-79
2023/10/06 03:16:10;;;;;;;13.00;3.28;;;11.80;99.90;;;-144.05;77.34;56938.03;5008810;28;20030;-78
2023/10/06 03:18:37;;;;;;;6.20;2.88;;;;;;;-144.05;77.33;56948.66;4992828;28;20489;-80
2023/10/06 03:23:39;;;;;;;9.60;3.30;;;;;;;-144.05;77.70;56974.16;4981077;28;20042;-80
2023/10/06 03:26:19;;;;;;;9.40;3.08;;;;;;;-144.05;77.90;56965.66;4978339;28;20054;-80
2023/10/06 03:28:49;;;;;;;11.07;3.58;;;;;;;-144.05;77.73;56969.91;4988768;28;20082;-81
2023/10/06 03:33:50;;;;;;;8.93;3.20;;;11.90;99.90;;;-144.05;77.83;56967.78;4981922;28;20508;-79
2023/10/06 03:36:16;;;;;;;8.07;2.72;;;;;;;-144.05;78.35;56944.41;4978690;28;20042;-79
2023/10/06 03:39:05;;;;;;;7.13;2.83;;;;;;;-144.05;78.05;56963.53;4981203;28;20035;-80
2023/10/06 03:41:32;;;;;;;7.20;3.22;;;;;;;-144.05;78.53;56961.41;4979273;28;20034;-79
2023/10/06 03:44:03;;;;;;;8.55;3.78;;;;;;;-144.05;78.13;56963.53;4978992;28;20102;-79
2023/10/06 03:46:37;;;;;;;11.73;3.03;;;;;;;-144.05;77.76;56978.41;4978941;28;20110;-79
2023/10/06 03:49:05;;;;;;;9.82;3.33;;;;;;;-144.05;77.63;56950.78;4977469;28;20026;-78
2023/10/06 03:51:37;;;;;;;13.13;3.67;;;;;;;-144.05;77.72;56952.91;4978588;28;20070;-80
2023/10/06 03:54:05;;;;;;;8.00;3.35;;;;;;;-144.05;77.77;56974.16;4993781;28;20054;-80
2023/10/06 03:56:34;;;;;;;12.88;3.55;;;11.50;99.90;;;-144.05;78.29;56959.28;4978898;28;20088;-78
2023/10/06 03:59:00;;;;;;;7.15;3.38;;;;;;;-144.05;78.73;56957.16;4978322;28;20069;-78
2023/10/06 04:01:31;;;;;;;10.38;3.55;;;;;;;-144.05;78.51;56967.78;4993324;28;20101;-80
2023/10/06 04:03:58;;;;;;;7.80;3.05;;;;;;;-144.05;78.10;56927.41;5004625;28;20027;-79
2023/10/06 04:06:26;;;;;;;5.15;2.75;;;12.60;99.90;;;-144.05;78.47;56944.41;4995228;28;20033;-79
2023/10/06 04:08:53;;;;;;;9.25;3.25;;;12.40;99.90;;;-144.05;77.91;56950.78;5007907;28;20483;-79
2023/10/06 04:11:20;;;;;;;11.23;3.65;;;;;;;-144.05;78.51;56972.03;4990941;28;20399;-79
2023/10/06 04:13:47;;;;;;;12.60;3.58;;;;;;;-144.05;78.69;56963.53;4997753;28;20513;-80
2023/10/06 04:16:14;;;;;;;7.35;3.03;;;;;;;-144.05;78.62;56950.78;4997386;28;20535;-78
2023/10/06 04:18:47;;;;;;;10.18;2.83;;;;;;;-144.05;78.61;56982.66;4993705;28;20026;-79
2023/10/06 04:21:13;;;;;;;6.63;2.95;;;;;;;-144.05;78.40;56976.28;4995623;28;20034;-81
2023/10/06 04:23:42;;;;;;;11.73;3.40;;;;;;;-144.05;78.77;56946.53;5010472;28;20030;-80
2023/10/06 04:26:15;;;;;;;8.95;3.47;;;11.70;99.90;;;-144.05;79.00;56967.78;4995043;28;20026;-80
2023/10/06 04:28:47;;;;;;;8.90;3.10;;;11.90;99.90;;;-144.05;78.77;56961.41;4994957;28;20498;-78
2023/10/06 04:31:15;;;;;;;6.78;3.30;;;;;;;-144.05;79.03;56980.53;5009984;28;20513;-79
2023/10/06 04:33:41;;;;;;;9.32;3.22;;;;;;;-144.05;78.41;56955.03;4977600;28;20038;-80
2023/10/06 04:36:07;;;;;;;7.95;3.17;;;;;;;-144.05;78.47;56948.66;4981573;28;20049;-79
2023/10/06 04:38:39;;;;;;;8.85;3.63;;;11.80;99.90;;;-144.05;78.64;56946.53;5002783;28;20023;-81
2023/10/06 04:41:08;;;;;;;9.80;3.65;;;11.30;99.90;;;-144.05;79.62;56969.91;4999173;28;20371;-80
2023/10/06 04:43:44;;;;;;;8.38;3.50;;;11.30;99.90;;;-144.05;79.05;56963.53;4989493;28;20026;-77
2023/10/06 04:46:12;;;;;;;9.45;3.80;;;;;;;-144.05;78.81;56965.66;5015149;28;20030;-77
2023/10/06 04:48:38;;;;;;;10.50;3.50;;;;;;;-144.05;79.52;56961.41;5015024;28;20034;-81
2023/10/06 04:51:06;;;;;;;7.10;3.60;;;;;;;-144.05;79.29;56972.03;5014466;28;20061;-80
2023/10/06 04:53:36;;;;;;;9.50;2.95;;;11.50;99.90;;;-144.05;78.92;56963.53;5014252;28;20091;-80
2023/10/06 04:56:08;;;;;;;15.70;3.70;;;8.60;99.90;;;-144.05;78.70;56933.78;5015124;28;20026;-78
2023/10/06 04:58:36;;;;;;;8.88;3.17;;;;;;;-144.05;78.82;56969.91;5015242;28;20141;-79
2023/10/06 05:01:03;;;;;;;7.25;2.83;;;16.20;99.90;;;-144.05;78.50;56961.41;5016196;28;20666;-80
2023/10/06 05:03:42;;;;;;;12.60;3.65;;;;;;;-144.05;78.83;56963.53;5015437;28;20029;-78
2023/10/06 05:06:16;;;;;;;7.82;2.95;;;11.70;99.90;;;-144.05;79.26;56950.78;5017259;28;20475;-81
2023/10/06 05:08:47;;;;;;;9.30;3.58;;;11.70;99.90;;;-144.05;78.75;56957.16;5013076;28;20471;-77
2023/10/06 05:11:18;;;;;;;10.50;3.47;;;11.70;99.90;;;-144.05;78.23;56957.16;4992633;28;20046;-77
2023/10/06 05:13:44;;;;;;;13.48;3.88;;;;;;;-144.05;77.95;56974.16;4992845;28;20031;-80
2023/10/06 05:16:11;;;;;;;6.88;3.60;;;;;;;-144.05;78.13;56938.03;4994189;28;20030;-79
2023/10/06 05:18:38;;;;;;;7.78;3.20;;;;;;;-144.05;78.59;56950.78;4995471;28;20045;-79
2023/10/06 05:21:08;;;;;;;12.80;3.25;;;;;;;-144.05;78.45;56972.03;4995520;28;20117;-80
2023/10/06 05:23:35;;;;;;;8.00;2.90;;;;;;;-144.05;78.67;56963.53;4996577;28;20069;-80
2023/10/06 05:26:08;;;;;;;9.52;3.08;;;;;;;-144.05;79.15;56946.53;4997497;28;20038;-80
2023/10/06 05:28:37;;;;;;;9.32;3.17;;;;;;;-144.05;79.02;56972.03;5014076;28;20110;-81
2023/10/06 05:31:07;;;;;;;9.75;3.08;;;;;;;-144.05;78.92;56972.03;5000634;28;20030;-80
2023/10/06 05:33:34;;;;;;;8.20;3.58;;;;;;;-144.05;78.86;56944.41;4997500;28;20030;-78
2023/10/06 05:36:09;;;;;;;9.80;3.50;;;;;;;-144.05;79.31;56955.03;4995272;28;20031;-78
2023/10/06 05:38:37;;;;;;;9.13;3.22;;;;;;;-144.05;79.10;56974.16;4996026;28;20019;-79
2023/10/06 05:41:05;;;;;;;9.23;3.20;;;;;;;-144.05;78.61;56967.78;4991833;28;20674;-80
2023/10/06 05:43:31;;;;;;;11.38;3.50;;;;;;;-144.05;78.92;56967.78;5002089;28;20112;-80
2023/10/06 05:45:57;;;;;;;10.52;3.50;;;;;;;-144.05;78.33;56961.41;5014922;28;20155;-80
2023/10/06 05:48:28;;;;;;;8.52;3.38;;;;;;;-144.05;78.60;56989.00;5014654;28;20024;-81
2023/10/06 05:51:04;;;;;;;12.05;4.07;;;;;;;-144.05;79.42;56961.41;5005194;28;20029;-81
2023/10/06 05:53:38;;;;;;;11.50;3.55;;;;;;;-144.05;79.01;56965.66;5014420;28;20048;-79
2023/10/06 05:56:07;;;;;;;12.85;4.57;;;;;;;-144.05;79.03;56967.78;5008477;28;20027;-79
2023/10/06 05:58:34;;;;;;;10.10;3.90;;;7.90;99.90;;;-144.05;79.31;56935.91;4994118;28;20406;-80
2023/10/06 06:01:05;;;;;;;10.68;3.83;;;;;;;-144.05;79.27;56963.53;5006709;28;20037;-78
2023/10/06 06:03:32;;;;;;;11.88;3.53;;;;;;;-144.05;78.48;56978.41;5012896;28;20625;-80
2023/10/06 06:06:08;;;;;;;12.90;3.80;;;;;;;-144.05;78.00;56967.78;4996775;28;20022;-78
2023/10/06 06:08:35;;;;;;;8.23;3.92;;;16.40;99.90;;;-144.05;77.71;56957.16;4998036;28;20036;-82
2023/10/06 06:11:01;;;;;;;8.32;3.40;;;7.70;99.90;;;-144.05;77.22;56978.41;5004331;28;20478;-78
2023/10/06 06:13:27;;;;;;;8.27;3.95;;;;;;;-144.05;76.75;56984.78;4995859;28;20110;-77
2023/10/06 06:15:54;;;;;;;8.77;3.28;;;8.10;99.90;;;-144.05;76.50;56959.28;4995273;28;20023;-81
2023/10/06 06:18:21;;;;;;;11.85;3.53;;;;;;;-144.05;76.69;56950.78;5008190;28;20463;-79
2023/10/06 06:20:47;;;;;;;7.95;2.90;;;;;;;-144.05;76.42;56952.91;5012083;28;20045;-77
2023/10/06 06:23:15;;;;;;;10.57;3.70;;;;;;;-144.05;75.89;56950.78;5014784;28;20120;-78
2023/10/06 06:25:44;;;;;;;9.68;2.67;;;;;;;-144.05;75.79;56972.03;5010761;28;20030;-77
2023/10/06 06:28:14;;;;;;;7.22;3.03;;;;;;;-144.05;74.68;56955.03;5011378;28;20479;-80
2023/10/06 06:30:40;;;;;;;7.65;3.10;;;12.70;99.90;;;-144.05;74.50;56961.41;5009850;28;20033;-79
2023/10/06 06:33:09;;;;;;;9.05;2.92;;;12.70;99.90;;;-144.05;74.13;56963.53;5012310;28;20034;-81
2023/10/06 06:35:36;;;;;;;7.38;3.40;;;17.30;99.90;;;-144.05;73.71;56967.78;5010849;28;20026;-79
2023/10/06 06:38:07;;;;;;;9.70;2.67;;;13.10;99.90;;;-144.05;72.75;56955.03;5012042;28;20026;-81
2023/10/06 06:40:37;;;;;;;7.53;2.58;;;13.30;99.90;;;-144.05;72.66;56957.16;5011890;28;20025;-77
2023/10/06 06:43:09;;;;;;;7.68;2.92;;;;;;;-144.05;71.56;56933.78;5011507;28;20487;-82
2023/10/06 06:45:39;;;;;;;9.55;3.13;;;9.10;99.90;;;-144.05;70.23;56925.28;4998618;28;20539;-81
2023/10/06 06:48:19;;;;;;;7.18;2.75;;;;;;;-144.05;69.44;56944.41;4998256;28;20026;-81
2023/10/06 06:50:48;;;;;;;6.97;2.45;;;;;;;-144.05;69.27;56914.69;4997493;28;20030;-81
2023/10/06 06:53:14;;;;;;;9.20;2.83;;;;;;;-144.05;68.65;56916.81;5011974;28;20033;-81
2023/10/06 06:55:40;;;;;;;8.32;2.95;;;;;;;-144.05;69.03;56912.56;5011079;28;20173;-83
2023/10/06 06:58:10;;;;;;;8.70;2.50;;;;;;;-144.05;67.98;56921.06;5011557;28;20464;-83
2023/10/06 07:00:41;;;;;;;7.13;2.72;;;14.20;99.90;;;-144.05;67.26;56948.66;5004416;28;20098;-82
2023/10/06 07:03:08;;;;;;;6.50;2.70;;;;;;;-144.05;68.18;56893.44;5020164;28;20038;-78
2023/10/06 07:05:35;;;;;;;6.50;2.70;;;;;;;-144.05;66.98;56957.16;5022073;28;20034;-79
2023/10/06 07:08:05;;;;;;;4.72;2.67;;;;;;;-144.05;67.63;56891.31;5029160;28;20034;-82
2023/10/06 07:10:31;;;;;;;9.68;3.13;;;;;;;-144.05;66.14;56906.19;5025859;28;20048;-85
2023/10/06 07:13:03;;;;;;;9.18;2.65;;;;;;;-144.05;64.66;56935.91;5010629;28;20022;-81
2023/10/06 07:15:29;;;;;;;10.68;2.38;;;;;;;-144.05;64.21;56927.41;5018543;28;20034;-79
2023/10/06 07:17:58;;;;;;;9.15;2.40;;;15.20;99.90;;;-144.05;64.43;56959.28;5002283;28;20108;-80
2023/10/06 07:20:28;;;;;;;7.43;2.47;;;15.10;99.90;;;-144.05;65.32;56929.53;5010603;28;20034;-81
2023/10/06 07:23:02;;;;;;;8.80;2.95;;;14.90;99.90;;;-144.05;66.05;56950.78;4997668;28;20030;-81
2023/10/06 07:25:29;;;;;;;7.88;2.78;;;15.10;99.90;;;-144.05;65.26;56927.41;5021089;28;20113;-81
2023/10/06 07:27:59;;;;;;;7.43;2.72;;;15.00;99.90;;;-144.05;64.72;56965.66;5015265;28;20033;-82
2023/10/06 07:30:34;;;;;;;8.10;3.20;;;14.80;99.90;;;-144.05;64.24;56950.78;5010236;28;20032;-81
2023/10/06 07:33:03;;;;;;;8.02;2.83;;;;;;;-144.05;64.44;56889.19;5000960;28;20372;-81
2023/10/06 07:36:05;;;;;;;6.47;2.78;;;14.70;99.90;;;-144.05;65.29;56957.16;5014451;28;20076;-80
2023/10/06 07:38:26;;;;;;;10.77;2.47;;;;;;;-144.05;64.67;56927.41;5003921;28;20037;-82
2023/10/06 07:40:52;;;;;;;5.47;2.35;;;;;;;-144.05;64.34;56935.91;4999240;28;20035;-82
2023/10/06 07:43:18;;;;;;;6.45;2.70;;;;;;;-144.05;63.77;56935.91;5004838;28;20114;-82
2023/10/06 07:45:45;;;;;;;5.30;2.95;;;;;;;-144.05;63.66;56952.91;5014186;28;20053;-81
2023/10/06 07:48:14;;;;;;;8.55;2.60;;;;;;;-144.05;64.31;56948.66;5003217;28;20037;-82
2023/10/06 07:50:40;;;;;;;6.97;2.55;;;;;;;-144.05;64.28;56914.69;5018408;28;20629;-81
2023/10/06 07:53:06;;;;;;;9.68;2.53;;;;;;;-144.05;63.81;56901.94;5014864;28;20038;-79
2023/10/06 07:55:32;;;;;;;7.25;2.20;;;;;;;-144.05;64.35;56938.03;5007895;28;20622;-79
2023/10/06 07:58:00;;;;;;;9.32;2.35;;;;;;;-144.05;63.67;56923.19;5004790;28;20048;-79
2023/10/06 08:00:29;;;;;;;6.50;2.25;;;;;;;-144.05;63.32;56918.94;5021147;28;20164;-82
2023/10/06 08:03:00;;;;;;;9.85;2.47;;;16.40;99.90;;;-144.05;63.16;56972.03;5002389;28;20489;-83
2023/10/06 08:05:28;;;;;;;5.68;2.20;;;;;;;-144.05;62.65;56914.69;5035148;28;20040;-80
2023/10/06 08:07:54;;;;;;;13.88;2.35;;;;;;;-144.05;62.96;56927.41;5002528;28;20038;-83
2023/10/06 08:10:21;;;;;;;6.47;1.90;;;;;;;-144.05;61.61;56946.53;4999898;28;20117;-83
2023/10/06 08:12:51;;;;;;;5.32;2.35;;;15.30;99.90;;;-144.05;62.16;56944.41;4997906;28;20030;-81
2023/10/06 08:15:21;;;;;;;6.90;2.22;;;15.40;99.90;;;-144.05;61.80;56948.66;4999515;28;20034;-80
2023/10/06 08:17:51;;;;;;;7.03;1.95;;;16.00;99.90;;;-144.05;62.55;56952.91;5002180;28;20025;-82
2023/10/06 08:20:20;;;;;;;7.95;2.45;;;;;;;-144.05;61.44;56944.41;5015032;28;20143;-82
2023/10/06 08:22:49;;;;;;;9.95;2.20;;;15.20;99.90;;;-144.05;60.96;56944.41;5004791;28;20041;-82
2023/10/06 08:25:17;;;;;;;6.50;2.10;;;15.90;99.90;;;-144.05;61.07;56925.28;5025252;28;20030;-84
2023/10/06 08:27:50;;;;;;;6.50;2.60;;;15.40;99.90;;;-144.05;60.40;56952.91;4998928;28;20130;-80
2023/10/06 08:30:19;;;;;;;8.68;2.58;;;16.10;99.90;;;-144.05;59.50;56982.66;5010152;28;20049;-79
2023/10/06 08:32:46;;;;;;;9.20;2.35;;;;;;;-144.05;59.21;56916.81;5010909;28;20025;-81
2023/10/06 08:35:13;;;;;;;8.52;2.50;;;;;;;-144.05;58.11;56972.03;5003655;28;20380;-80
2023/10/06 08:37:44;;;;;;;7.18;2.40;;;17.20;99.90;;;-144.05;57.07;56935.91;5010236;28;20018;-80
2023/10/06 08:40:16;;;;;;;7.22;2.22;;;13.00;99.90;;;-144.05;54.92;56940.16;5000030;28;20030;-83
2023/10/06 08:42:53;;;;;;;7.45;2.30;;;19.60;99.90;;;-144.05;53.98;56955.03;5005672;28;20018;-80
2023/10/06 08:45:28;;;;;;;7.63;2.50;;;18.00;99.90;;;-144.05;53.76;56963.53;4996200;28;20533;-81
2023/10/06 08:48:01;;;;;;;5.50;2.05;;;18.10;99.90;;;-144.05;52.62;56961.41;5004395;28;20417;-80
2023/10/06 08:50:31;;;;;;;11.95;3.42;;;17.80;99.90;;;-144.05;52.87;56952.91;5011900;28;20026;-83
2023/10/06 08:52:59;;;;;;;8.43;2.50;;;;;;;-144.05;53.91;56984.78;5007193;28;20117;-82
2023/10/06 08:55:30;;;;;;;6.22;1.85;;;17.90;99.90;;;-144.05;53.91;56944.41;5009239;28;20042;-82
2023/10/06 08:58:00;;;;;;;8.15;2.10;;;;;;;-144.05;53.69;56950.78;5010485;28;20070;-81
2023/10/06 09:00:31;;;;;;;11.20;2.47;;;;;;;-144.05;53.96;56957.16;5003639;28;20035;-79
2023/10/06 09:03:07;;;;;;;5.40;2.03;;;;;;;-144.05;53.64;56965.66;5004453;28;20033;-82
2023/10/06 09:05:38;;;;;;;6.00;2.50;;;18.30;99.90;;;-144.05;53.89;56940.16;5000022;28;20031;-81
2023/10/06 09:08:11;;;;;;;8.90;2.05;;;18.60;99.90;;;-144.05;54.05;56959.28;5004315;28;20474;-83
2023/10/06 09:10:57;;;;;;;7.38;2.85;;;18.20;99.90;;;-144.05;54.44;56976.28;5006801;28;20029;-83
2023/10/06 09:13:25;;;;;;;8.38;2.78;;;;;;;-144.05;53.43;56955.03;5004710;28;20091;-82
2023/10/06 09:16:06;;;;;;;13.50;3.03;;;18.20;99.90;;;-144.05;53.32;56948.66;5008735;28;20094;-81
2023/10/06 09:18:38;;;;;;;8.32;2.83;;;;;;;-144.05;53.16;56982.66;4998240;28;20022;-84
2023/10/06 09:21:19;;;;;;;5.40;2.42;;;18.50;99.90;;;-144.05;51.83;56938.03;5005816;28;20122;-80
2023/10/06 09:23:46;;;;;;;8.80;2.92;;;;;;;-144.05;51.78;56986.91;4996533;28;20528;-82
2023/10/06 09:26:25;;;;;;;9.80;3.00;;;18.10;99.90;;;-144.05;51.40;56948.66;5001023;28;20486;-82
2023/10/06 09:28:59;;;;;;;10.68;3.10;;;18.20;99.90;;;-144.05;51.90;56955.03;4999865;28;20509;-81
2023/10/06 09:31:46;;;;;;;8.90;2.58;;;18.50;99.90;;;-144.05;51.45;56955.03;5000879;28;20026;-80
2023/10/06 09:34:23;;;;;;;7.68;2.63;;;;;;;-144.05;51.35;56976.28;4999993;28;20018;-81
2023/10/06 09:36:52;;;;;;;10.15;2.83;;;;;;;-144.05;52.41;56963.53;5005887;28;20023;-77
2023/10/06 09:39:32;;;;;;;9.63;3.22;;;18.30;99.90;;;-144.05;52.37;56989.00;5012787;28;20369;-84
2023/10/06 09:42:01;;;;;;;13.77;3.50;;;18.00;99.90;;;-144.05;52.63;56942.28;5021128;28;20118;-83
2023/10/06 09:44:30;;;;;;;9.32;2.88;;;18.50;99.90;;;-144.05;52.74;56959.28;5002040;28;20022;-83
2023/10/06 09:47:03;;;;;;;12.25;2.53;;;18.40;99.90;;;-144.05;51.89;56942.28;5001768;28;20030;-84
2023/10/06 09:49:37;;;;;;;10.90;3.15;;;18.70;99.90;;;-144.05;51.20;56961.41;5003803;28;20130;-83
2023/10/06 09:52:06;;;;;;;12.00;2.75;;;18.70;99.90;;;-144.05;51.81;56995.38;5002324;28;20120;-77
2023/10/06 09:54:36;;;;;;;12.55;3.35;;;18.50;99.90;;;-144.05;51.18;56980.53;5004733;28;20399;-83
2023/10/06 09:57:05;;;;;;;13.18;3.05;;;;;;;-144.05;50.99;56969.91;5003171;28;20062;-82
2023/10/06 09:59:32;;;;;;;10.32;2.70;;;18.10;99.90;;;-144.05;51.74;56946.53;5003665;28;20026;-81
2023/10/06 10:02:01;;;;;;;6.32;2.65;;;;;;;-144.05;51.18;56974.16;4995631;28;20026;-82
2023/10/06 10:04:31;;;;;;;7.88;2.60;;;18.20;99.90;;;-144.05;51.57;56984.78;5013452;28;20055;-84
2023/10/06 10:06:58;;;;;;;11.88;3.20;;;;;;;-144.05;51.69;56969.91;5005658;28;20520;-83
2023/10/06 10:09:28;;;;;;;7.25;3.53;;;;;;;-144.05;51.15;56969.91;5005321;28;20538;-80
2023/10/06 10:12:40;;;;;;;12.70;2.72;;;19.90;99.90;;;-144.05;50.68;56935.91;5001381;28;20113;-80
2023/10/06 10:15:21;;;;;;;8.40;2.80;;;;;;;-144.05;51.52;56948.66;4998167;28;20026;-81
2023/10/06 10:18:17;;;;;;;7.47;2.85;;;18.70;99.90;;;-144.05;51.25;56976.28;5016905;28;20030;-77
2023/10/06 10:20:46;;;;;;;10.18;2.60;;;;;;;-144.05;51.37;56961.41;5005646;28;20022;-80
2023/10/06 10:23:18;;;;;;;13.60;3.40;;;18.50;99.90;;;-144.05;51.70;56961.41;5005753;28;20029;-78
2023/10/06 10:25:48;;;;;;;9.38;3.05;;;;;;;-144.05;51.11;56974.16;5003511;28;20026;-80
2023/10/06 10:28:19;;;;;;;12.43;2.92;;;18.90;99.90;;;-144.05;50.79;56950.78;5002877;28;20054;-82
2023/10/06 10:31:01;;;;;;;6.68;2.63;;;20.00;99.90;;;-144.05;49.49;56984.78;5009195;28;20021;-82
2023/10/06 10:33:33;;;;;;;8.13;2.70;;;20.90;99.90;;;-144.05;50.27;56961.41;5006450;28;20054;-81
2023/10/06 10:36:14;;;;;;;11.73;3.58;;;19.90;99.90;;;-144.05;49.71;56980.53;5011445;28;20098;-86
2023/10/06 10:38:55;;;;;;;8.45;2.83;;;19.40;99.90;;;-144.05;50.19;56989.00;5007979;28;20026;-83
2023/10/06 10:41:27;;;;;;;10.07;3.10;;;;;;;-144.05;50.25;56955.03;5011402;28;20146;-84
2023/10/06 10:43:55;;;;;;;11.35;2.90;;;;;;;-144.05;50.78;56965.66;5004987;28;20058;-80
2023/10/06 10:46:48;;;;;;;9.55;2.50;;;20.80;99.90;;;-144.05;50.70;56974.16;5001379;28;20062;-83
2023/10/06 10:49:20;;;;;;;9.05;3.67;;;20.30;99.90;;;-144.05;50.31;56986.91;4998700;28;20083;-82
2023/10/06 10:52:02;;;;;;;3.97;2.60;;;18.90;99.90;;;-144.05;50.13;56969.91;5006508;28;20496;-85
2023/10/06 10:54:33;;;;;;;6.53;2.45;;;;;;;-144.05;50.57;56948.66;5012405;28;20078;-82
2023/10/06 10:57:14;;;;;;;10.52;2.42;;;19.50;99.90;;;-144.05;51.28;56967.78;5028682;28;20034;-84
2023/10/06 11:02:48;;;;;;;9.10;2.63;;;;;;;-144.05;51.98;56957.16;5005898;28;20026;-83
2023/10/06 11:05:18;;;;;;;8.75;2.58;;;;;;;-144.05;50.62;56986.91;5009074;28;20056;-84
2023/10/06 11:08:01;;;;;;;7.00;2.85;;;21.00;99.90;;;-144.05;50.27;56969.91;5010004;28;20088;-82
2023/10/06 11:10:28;;;;;;;7.43;2.58;;;;;;;-144.05;50.21;57008.13;5001541;28;20085;-84
2023/10/06 11:13:18;;;;;;;7.78;2.85;;;18.60;99.90;;;-144.05;51.44;56965.66;5011415;28;20030;-85
2023/10/06 11:15:46;;;;;;;7.80;2.47;;;;;;;-144.05;52.79;56982.66;5006610;28;20093;-81
2023/10/06 11:18:17;;;;;;;10.95;2.50;;;;;;;-144.05;52.99;56955.03;5014952;28;20026;-84
2023/10/06 11:20:45;;;;;;;8.30;2.83;;;;;;;-144.05;53.95;56959.28;5003668;28;20030;-84